sensor_id;sensor_type;location;lat;lon;timestamp;noise_LAeq;noise_LA_min;noise_LA_max;noise_LA01;noise_LA95
74214;Laerm;62576;55.694;37.494;2023-04-03T00:00:52;57.49;54.95;64.38;;
74214;Laerm;62576;55.694;37.494;2023-04-03T00:03:22;59.94;55.52;65.59;;
74214;Laerm;62576;55.694;37.494;2023-04-03T00:05:52;59.14;54.35;65.74;;
74214;Laerm;62576;55.694;37.494;2023-04-03T00:08:23;59.13;55.12;64.97;;
74214;Laerm;62576;55.694;37.494;2023-04-03T00:10:53;58.75;53.97;72.99;;
74214;Laerm;62576;55.694;37.494;2023-04-03T00:13:25;58.08;55.28;63.75;;
74214;Laerm;62576;55.694;37.494;2023-04-03T00:15:55;57.23;54.87;64.41;;
74214;Laerm;62576;55.694;37.494;2023-04-03T00:18:25;57.95;54.97;65.31;;
74214;Laerm;62576;55.694;37.494;2023-04-03T00:20:55;59.34;53.20;67.24;;
74214;Laerm;62576;55.694;37.494;2023-04-03T00:23:26;58.44;54.60;63.42;;
74214;Laerm;62576;55.694;37.494;2023-04-03T00:25:56;57.43;54.91;63.00;;
74214;Laerm;62576;55.694;37.494;2023-04-03T00:28:27;59.35;55.27;69.35;;
74214;Laerm;62576;55.694;37.494;2023-04-03T00:30:57;57.05;53.93;62.12;;
74214;Laerm;62576;55.694;37.494;2023-04-03T00:33:30;59.22;55.07;68.49;;
74214;Laerm;62576;55.694;37.494;2023-04-03T00:36:06;61.78;55.08;73.52;;
74214;Laerm;62576;55.694;37.494;2023-04-03T00:38:37;57.24;53.91;64.09;;
74214;Laerm;62576;55.694;37.494;2023-04-03T00:41:07;56.96;49.96;62.03;;
74214;Laerm;62576;55.694;37.494;2023-04-03T00:43:41;58.65;53.10;68.28;;
74214;Laerm;62576;55.694;37.494;2023-04-03T00:46:11;57.56;50.32;64.27;;
74214;Laerm;62576;55.694;37.494;2023-04-03T00:48:44;57.55;54.76;66.23;;
74214;Laerm;62576;55.694;37.494;2023-04-03T00:51:16;57.46;54.73;64.60;;
74214;Laerm;62576;55.694;37.494;2023-04-03T00:53:50;56.97;49.90;64.89;;
74214;Laerm;62576;55.694;37.494;2023-04-03T00:56:24;57.78;49.62;62.76;;
74214;Laerm;62576;55.694;37.494;2023-04-03T00:58:59;59.28;55.21;68.18;;
74214;Laerm;62576;55.694;37.494;2023-04-03T01:01:31;65.76;56.78;73.99;;
74214;Laerm;62576;55.694;37.494;2023-04-03T01:04:01;62.75;56.07;71.05;;
74214;Laerm;62576;55.694;37.494;2023-04-03T01:06:34;57.64;53.66;65.81;;
74214;Laerm;62576;55.694;37.494;2023-04-03T01:09:05;59.66;53.08;67.38;;
74214;Laerm;62576;55.694;37.494;2023-04-03T01:11:38;56.37;53.38;59.59;;
74214;Laerm;62576;55.694;37.494;2023-04-03T01:14:10;58.62;54.70;66.84;;
74214;Laerm;62576;55.694;37.494;2023-04-03T01:16:40;58.01;55.38;62.36;;
74214;Laerm;62576;55.694;37.494;2023-04-03T01:19:13;58.05;55.05;63.40;;
74214;Laerm;62576;55.694;37.494;2023-04-03T01:21:58;58.66;55.12;64.39;;
74214;Laerm;62576;55.694;37.494;2023-04-03T01:24:34;57.15;55.19;65.29;;
74214;Laerm;62576;55.694;37.494;2023-04-03T01:27:07;58.16;55.10;63.10;;
74214;Laerm;62576;55.694;37.494;2023-04-03T01:29:40;57.15;50.69;64.44;;
74214;Laerm;62576;55.694;37.494;2023-04-03T01:32:10;59.40;50.35;73.66;;
74214;Laerm;62576;55.694;37.494;2023-04-03T01:34:40;55.68;51.58;62.01;;
74214;Laerm;62576;55.694;37.494;2023-04-03T01:37:10;57.08;52.39;62.16;;
74214;Laerm;62576;55.694;37.494;2023-04-03T01:39:40;57.49;55.05;63.04;;
74214;Laerm;62576;55.694;37.494;2023-04-03T01:42:10;59.26;54.87;65.07;;
74214;Laerm;62576;55.694;37.494;2023-04-03T01:44:41;56.42;54.87;60.98;;
74214;Laerm;62576;55.694;37.494;2023-04-03T01:47:14;60.31;55.14;68.70;;
74214;Laerm;62576;55.694;37.494;2023-04-03T01:49:44;59.83;55.75;68.54;;
74214;Laerm;62576;55.694;37.494;2023-04-03T01:52:11;59.95;55.09;72.93;;
74214;Laerm;62576;55.694;37.494;2023-04-03T01:54:41;60.19;55.77;70.57;;
74214;Laerm;62576;55.694;37.494;2023-04-03T01:57:11;59.31;55.66;68.54;;
74214;Laerm;62576;55.694;37.494;2023-04-03T01:59:42;61.53;56.80;69.31;;
74214;Laerm;62576;55.694;37.494;2023-04-03T02:02:13;62.35;55.97;72.93;;
74214;Laerm;62576;55.694;37.494;2023-04-03T02:04:44;59.57;55.30;66.42;;
74214;Laerm;62576;55.694;37.494;2023-04-03T02:07:14;58.57;55.00;64.43;;
74214;Laerm;62576;55.694;37.494;2023-04-03T02:09:44;61.02;55.25;72.10;;
74214;Laerm;62576;55.694;37.494;2023-04-03T02:12:14;58.75;55.15;64.84;;
74214;Laerm;62576;55.694;37.494;2023-04-03T02:14:44;59.27;55.70;66.48;;
74214;Laerm;62576;55.694;37.494;2023-04-03T02:17:15;60.00;55.45;67.96;;
74214;Laerm;62576;55.694;37.494;2023-04-03T02:19:45;61.44;55.68;72.04;;
74214;Laerm;62576;55.694;37.494;2023-04-03T02:22:15;59.26;55.32;65.06;;
74214;Laerm;62576;55.694;37.494;2023-04-03T02:24:45;60.87;56.02;74.94;;
74214;Laerm;62576;55.694;37.494;2023-04-03T02:27:15;61.65;57.38;68.39;;
74214;Laerm;62576;55.694;37.494;2023-04-03T02:29:45;60.80;54.54;66.80;;
74214;Laerm;62576;55.694;37.494;2023-04-03T02:32:17;58.62;52.73;64.48;;
74214;Laerm;62576;55.694;37.494;2023-04-03T02:34:47;61.84;56.53;67.79;;
74214;Laerm;62576;55.694;37.494;2023-04-03T02:37:17;59.42;55.34;65.19;;
74214;Laerm;62576;55.694;37.494;2023-04-03T02:39:47;59.55;55.52;67.77;;
74214;Laerm;62576;55.694;37.494;2023-04-03T02:42:17;62.36;56.99;69.61;;
74214;Laerm;62576;55.694;37.494;2023-04-03T02:44:47;58.71;55.62;62.53;;
74214;Laerm;62576;55.694;37.494;2023-04-03T02:47:18;62.40;56.87;71.77;;
74214;Laerm;62576;55.694;37.494;2023-04-03T02:49:49;60.51;56.03;67.86;;
74214;Laerm;62576;55.694;37.494;2023-04-03T02:52:16;63.08;56.51;75.00;;
74214;Laerm;62576;55.694;37.494;2023-04-03T02:54:46;61.68;56.28;69.01;;
74214;Laerm;62576;55.694;37.494;2023-04-03T02:57:17;61.16;56.19;68.39;;
74214;Laerm;62576;55.694;37.494;2023-04-03T02:59:48;60.23;55.76;66.46;;
74214;Laerm;62576;55.694;37.494;2023-04-03T03:02:20;61.20;56.36;67.92;;
74214;Laerm;62576;55.694;37.494;2023-04-03T03:04:53;62.24;57.07;67.54;;
74214;Laerm;62576;55.694;37.494;2023-04-03T03:07:23;64.04;58.76;70.13;;
74214;Laerm;62576;55.694;37.494;2023-04-03T03:09:54;62.17;56.96;67.42;;
74214;Laerm;62576;55.694;37.494;2023-04-03T03:12:24;62.58;57.37;70.14;;
74214;Laerm;62576;55.694;37.494;2023-04-03T03:14:54;62.66;56.40;69.61;;
74214;Laerm;62576;55.694;37.494;2023-04-03T03:17:26;63.43;57.60;73.34;;
74214;Laerm;62576;55.694;37.494;2023-04-03T03:19:59;63.69;56.00;70.69;;
74214;Laerm;62576;55.694;37.494;2023-04-03T03:22:29;64.08;57.43;70.65;;
74214;Laerm;62576;55.694;37.494;2023-04-03T03:24:59;62.98;56.84;69.04;;
74214;Laerm;62576;55.694;37.494;2023-04-03T03:27:30;63.23;57.23;68.37;;
74214;Laerm;62576;55.694;37.494;2023-04-03T03:30:00;63.97;57.40;69.72;;
74214;Laerm;62576;55.694;37.494;2023-04-03T03:32:32;62.52;57.15;70.84;;
74214;Laerm;62576;55.694;37.494;2023-04-03T03:35:03;64.68;58.05;71.13;;
74214;Laerm;62576;55.694;37.494;2023-04-03T03:37:33;63.72;57.24;70.39;;
74214;Laerm;62576;55.694;37.494;2023-04-03T03:40:03;65.39;57.26;72.02;;
74214;Laerm;62576;55.694;37.494;2023-04-03T03:42:33;64.89;59.04;72.07;;
74214;Laerm;62576;55.694;37.494;2023-04-03T03:45:04;65.03;56.52;72.97;;
74214;Laerm;62576;55.694;37.494;2023-04-03T03:47:36;65.33;58.56;72.72;;
74214;Laerm;62576;55.694;37.494;2023-04-03T03:50:08;65.26;58.14;75.39;;
74214;Laerm;62576;55.694;37.494;2023-04-03T03:52:38;66.14;59.93;71.30;;
74214;Laerm;62576;55.694;37.494;2023-04-03T03:55:08;64.63;58.34;71.34;;
74214;Laerm;62576;55.694;37.494;2023-04-03T03:57:38;66.20;59.35;72.05;;
74214;Laerm;62576;55.694;37.494;2023-04-03T04:00:10;65.45;58.12;71.46;;
74214;Laerm;62576;55.694;37.494;2023-04-03T04:02:41;66.24;60.16;72.03;;
74214;Laerm;62576;55.694;37.494;2023-04-03T04:05:11;67.56;59.82;74.72;;
74214;Laerm;62576;55.694;37.494;2023-04-03T04:07:41;67.01;60.91;72.18;;
74214;Laerm;62576;55.694;37.494;2023-04-03T04:10:11;66.92;60.01;71.99;;
74214;Laerm;62576;55.694;37.494;2023-04-03T04:12:42;67.04;61.50;71.04;;
74214;Laerm;62576;55.694;37.494;2023-04-03T04:15:12;66.27;60.62;71.02;;
74214;Laerm;62576;55.694;37.494;2023-04-03T04:17:44;66.66;60.28;71.23;;
74214;Laerm;62576;55.694;37.494;2023-04-03T04:20:15;66.81;59.52;72.30;;
74214;Laerm;62576;55.694;37.494;2023-04-03T04:22:45;67.90;61.65;71.73;;
74214;Laerm;62576;55.694;37.494;2023-04-03T04:25:15;67.84;60.97;77.38;;
74214;Laerm;62576;55.694;37.494;2023-04-03T04:27:46;67.61;58.59;72.51;;
74214;Laerm;62576;55.694;37.494;2023-04-03T04:30:16;68.01;61.18;73.92;;
74214;Laerm;62576;55.694;37.494;2023-04-03T04:32:48;67.02;62.62;71.24;;
74214;Laerm;62576;55.694;37.494;2023-04-03T04:35:18;67.07;61.11;71.61;;
74214;Laerm;62576;55.694;37.494;2023-04-03T04:37:48;67.21;61.20;71.97;;
74214;Laerm;62576;55.694;37.494;2023-04-03T04:40:18;67.69;60.66;75.06;;
74214;Laerm;62576;55.694;37.494;2023-04-03T04:42:49;67.09;61.67;71.12;;
74214;Laerm;62576;55.694;37.494;2023-04-03T04:45:19;68.23;64.17;71.85;;
74214;Laerm;62576;55.694;37.494;2023-04-03T04:47:51;67.04;61.90;72.11;;
74214;Laerm;62576;55.694;37.494;2023-04-03T04:50:21;67.42;62.54;71.57;;
74214;Laerm;62576;55.694;37.494;2023-04-03T04:52:49;68.57;63.71;74.31;;
74214;Laerm;62576;55.694;37.494;2023-04-03T04:55:19;68.52;60.92;71.91;;
74214;Laerm;62576;55.694;37.494;2023-04-03T04:57:49;68.28;62.29;71.97;;
74214;Laerm;62576;55.694;37.494;2023-04-03T05:00:20;68.14;61.56;72.61;;
74214;Laerm;62576;55.694;37.494;2023-04-03T05:02:52;67.58;62.47;72.21;;
74214;Laerm;62576;55.694;37.494;2023-04-03T05:05:22;67.94;62.10;72.57;;
74214;Laerm;62576;55.694;37.494;2023-04-03T05:07:53;68.34;62.83;72.61;;
74214;Laerm;62576;55.694;37.494;2023-04-03T05:10:23;67.63;62.56;71.33;;
74214;Laerm;62576;55.694;37.494;2023-04-03T05:12:53;68.44;60.86;78.74;;
74214;Laerm;62576;55.694;37.494;2023-04-03T05:15:24;67.89;61.98;75.49;;
74214;Laerm;62576;55.694;37.494;2023-04-03T05:17:55;66.94;62.34;71.90;;
74214;Laerm;62576;55.694;37.494;2023-04-03T05:20:26;72.33;63.14;88.96;;
74214;Laerm;62576;55.694;37.494;2023-04-03T05:22:56;67.89;63.70;73.07;;
74214;Laerm;62576;55.694;37.494;2023-04-03T05:25:26;67.93;62.67;71.63;;
74214;Laerm;62576;55.694;37.494;2023-04-03T05:27:57;67.78;61.29;72.40;;
74214;Laerm;62576;55.694;37.494;2023-04-03T05:30:27;67.33;60.43;71.47;;
74214;Laerm;62576;55.694;37.494;2023-04-03T05:32:59;67.90;62.25;72.67;;
74214;Laerm;62576;55.694;37.494;2023-04-03T05:35:29;67.53;61.57;71.67;;
74214;Laerm;62576;55.694;37.494;2023-04-03T05:38:00;67.39;61.08;74.13;;
74214;Laerm;62576;55.694;37.494;2023-04-03T05:40:30;67.21;61.54;71.45;;
74214;Laerm;62576;55.694;37.494;2023-04-03T05:43:00;68.16;61.71;72.78;;
74214;Laerm;62576;55.694;37.494;2023-04-03T05:45:31;67.96;60.27;72.45;;
74214;Laerm;62576;55.694;37.494;2023-04-03T05:48:05;67.73;61.92;72.18;;
74214;Laerm;62576;55.694;37.494;2023-04-03T05:50:34;68.85;63.51;80.77;;
74214;Laerm;62576;55.694;37.494;2023-04-03T05:53:15;68.17;62.20;72.94;;
74214;Laerm;62576;55.694;37.494;2023-04-03T05:55:48;68.65;62.34;73.42;;
74214;Laerm;62576;55.694;37.494;2023-04-03T05:58:18;67.55;61.51;72.86;;
74214;Laerm;62576;55.694;37.494;2023-04-03T06:00:49;67.69;60.79;77.25;;
74214;Laerm;62576;55.694;37.494;2023-04-03T06:03:21;67.18;60.90;76.52;;
74214;Laerm;62576;55.694;37.494;2023-04-03T06:05:52;67.25;59.59;72.50;;
74214;Laerm;62576;55.694;37.494;2023-04-03T06:11:58;67.42;60.92;73.64;;
74214;Laerm;62576;55.694;37.494;2023-04-03T06:14:28;66.85;61.55;71.26;;
74214;Laerm;62576;55.694;37.494;2023-04-03T06:16:58;66.73;60.90;72.16;;
74214;Laerm;62576;55.694;37.494;2023-04-03T06:19:31;67.27;60.92;73.13;;
74214;Laerm;62576;55.694;37.494;2023-04-03T06:22:02;67.84;61.40;71.56;;
74214;Laerm;62576;55.694;37.494;2023-04-03T06:24:33;67.58;61.29;77.69;;
74214;Laerm;62576;55.694;37.494;2023-04-03T06:27:04;67.99;61.93;72.47;;
74214;Laerm;62576;55.694;37.494;2023-04-03T06:29:34;67.25;61.44;71.18;;
74214;Laerm;62576;55.694;37.494;2023-04-03T06:32:06;67.04;60.80;71.41;;
74214;Laerm;62576;55.694;37.494;2023-04-03T06:34:37;67.89;62.12;72.75;;
74214;Laerm;62576;55.694;37.494;2023-04-03T06:37:10;68.01;63.13;71.82;;
74214;Laerm;62576;55.694;37.494;2023-04-03T06:39:44;68.71;63.12;74.74;;
74214;Laerm;62576;55.694;37.494;2023-04-03T06:42:15;69.13;65.53;73.24;;
74214;Laerm;62576;55.694;37.494;2023-04-03T06:44:45;67.41;61.51;71.98;;
74214;Laerm;62576;55.694;37.494;2023-04-03T06:47:16;67.94;62.12;72.54;;
74214;Laerm;62576;55.694;37.494;2023-04-03T06:49:49;68.68;63.50;76.80;;
74214;Laerm;62576;55.694;37.494;2023-04-03T06:52:16;67.78;62.35;73.17;;
74214;Laerm;62576;55.694;37.494;2023-04-03T06:54:46;67.90;62.96;71.96;;
74214;Laerm;62576;55.694;37.494;2023-04-03T06:57:16;68.54;61.56;75.00;;
74214;Laerm;62576;55.694;37.494;2023-04-03T06:59:47;67.64;60.69;72.94;;
74214;Laerm;62576;55.694;37.494;2023-04-03T07:02:17;67.67;61.35;72.20;;
74214;Laerm;62576;55.694;37.494;2023-04-03T07:04:49;67.63;60.75;73.83;;
74214;Laerm;62576;55.694;37.494;2023-04-03T07:07:23;68.33;62.38;72.64;;
74214;Laerm;62576;55.694;37.494;2023-04-03T07:09:54;67.35;61.50;71.67;;
74214;Laerm;62576;55.694;37.494;2023-04-03T07:12:24;68.07;61.77;72.19;;
74214;Laerm;62576;55.694;37.494;2023-04-03T07:14:54;67.46;61.28;77.09;;
74214;Laerm;62576;55.694;37.494;2023-04-03T07:17:25;68.14;62.59;73.39;;
74214;Laerm;62576;55.694;37.494;2023-04-03T07:19:56;66.83;60.59;72.87;;
74214;Laerm;62576;55.694;37.494;2023-04-03T07:22:27;69.35;63.15;73.89;;
74214;Laerm;62576;55.694;37.494;2023-04-03T07:25:01;68.06;62.17;72.92;;
74214;Laerm;62576;55.694;37.494;2023-04-03T07:27:31;68.38;63.78;73.88;;
74214;Laerm;62576;55.694;37.494;2023-04-03T07:30:06;68.23;62.08;72.84;;
74214;Laerm;62576;55.694;37.494;2023-04-03T07:32:37;67.84;59.38;73.61;;
74214;Laerm;62576;55.694;37.494;2023-04-03T07:35:09;67.23;60.07;78.38;;
74214;Laerm;62576;55.694;37.494;2023-04-03T07:37:40;68.30;60.27;72.61;;
74214;Laerm;62576;55.694;37.494;2023-04-03T07:40:10;67.15;60.08;73.09;;
74214;Laerm;62576;55.694;37.494;2023-04-03T07:42:40;67.90;62.30;72.53;;
74214;Laerm;62576;55.694;37.494;2023-04-03T07:45:16;68.36;63.11;76.27;;
74214;Laerm;62576;55.694;37.494;2023-04-03T07:47:49;67.28;61.31;72.64;;
74214;Laerm;62576;55.694;37.494;2023-04-03T07:50:22;66.96;62.04;72.50;;
74214;Laerm;62576;55.694;37.494;2023-04-03T07:52:52;67.75;61.90;74.08;;
74214;Laerm;62576;55.694;37.494;2023-04-03T07:55:25;68.37;62.46;74.03;;
74214;Laerm;62576;55.694;37.494;2023-04-03T07:57:55;66.60;60.67;71.65;;
74214;Laerm;62576;55.694;37.494;2023-04-03T08:00:26;68.48;60.36;72.90;;
74214;Laerm;62576;55.694;37.494;2023-04-03T08:02:56;67.66;60.28;74.56;;
74214;Laerm;62576;55.694;37.494;2023-04-03T08:05:28;66.36;61.60;72.47;;
74214;Laerm;62576;55.694;37.494;2023-04-03T08:07:58;66.82;61.27;70.95;;
74214;Laerm;62576;55.694;37.494;2023-04-03T08:10:30;67.27;63.26;75.61;;
74214;Laerm;62576;55.694;37.494;2023-04-03T08:13:01;67.12;60.62;73.62;;
74214;Laerm;62576;55.694;37.494;2023-04-03T08:15:31;67.93;62.12;83.59;;
74214;Laerm;62576;55.694;37.494;2023-04-03T08:18:01;66.49;58.83;77.85;;
74214;Laerm;62576;55.694;37.494;2023-04-03T08:20:33;66.35;60.67;71.51;;
74214;Laerm;62576;55.694;37.494;2023-04-03T08:23:04;66.62;61.45;70.85;;
74214;Laerm;62576;55.694;37.494;2023-04-03T08:25:37;67.12;61.12;71.56;;
74214;Laerm;62576;55.694;37.494;2023-04-03T08:28:08;67.04;61.08;72.95;;
74214;Laerm;62576;55.694;37.494;2023-04-03T08:30:39;66.30;59.53;71.68;;
74214;Laerm;62576;55.694;37.494;2023-04-03T08:33:11;66.71;58.95;72.61;;
74214;Laerm;62576;55.694;37.494;2023-04-03T08:35:42;66.58;58.63;70.88;;
74214;Laerm;62576;55.694;37.494;2023-04-03T08:38:13;67.37;61.12;72.88;;
74214;Laerm;62576;55.694;37.494;2023-04-03T08:40:43;66.79;61.42;73.63;;
74214;Laerm;62576;55.694;37.494;2023-04-03T08:43:28;66.54;59.54;71.47;;
74214;Laerm;62576;55.694;37.494;2023-04-03T08:46:05;66.32;60.90;73.94;;
74214;Laerm;62576;55.694;37.494;2023-04-03T08:48:41;66.40;58.99;71.14;;
74214;Laerm;62576;55.694;37.494;2023-04-03T08:51:13;66.72;59.77;71.39;;
74214;Laerm;62576;55.694;37.494;2023-04-03T08:53:52;67.26;59.44;71.81;;
74214;Laerm;62576;55.694;37.494;2023-04-03T08:56:24;66.77;60.70;70.81;;
74214;Laerm;62576;55.694;37.494;2023-04-03T08:58:58;66.21;60.84;74.49;;
74214;Laerm;62576;55.694;37.494;2023-04-03T09:01:34;66.26;59.25;75.07;;
74214;Laerm;62576;55.694;37.494;2023-04-03T09:04:11;66.97;58.74;72.52;;
74214;Laerm;62576;55.694;37.494;2023-04-03T09:06:47;66.18;59.86;70.57;;
74214;Laerm;62576;55.694;37.494;2023-04-03T09:09:29;66.49;61.36;71.08;;
74214;Laerm;62576;55.694;37.494;2023-04-03T09:12:06;65.92;60.55;70.40;;
74214;Laerm;62576;55.694;37.494;2023-04-03T09:14:49;66.52;60.09;82.90;;
74214;Laerm;62576;55.694;37.494;2023-04-03T09:17:35;66.99;61.61;73.56;;
74214;Laerm;62576;55.694;37.494;2023-04-03T09:20:17;66.08;60.41;71.05;;
74214;Laerm;62576;55.694;37.494;2023-04-03T09:22:51;68.05;60.32;79.94;;
74214;Laerm;62576;55.694;37.494;2023-04-03T09:25:23;65.68;61.46;69.48;;
74214;Laerm;62576;55.694;37.494;2023-04-03T09:27:55;66.41;60.63;75.50;;
74214;Laerm;62576;55.694;37.494;2023-04-03T09:30:31;67.02;61.42;71.64;;
74214;Laerm;62576;55.694;37.494;2023-04-03T09:33:03;66.47;60.72;74.53;;
74214;Laerm;62576;55.694;37.494;2023-04-03T09:35:36;67.00;60.83;72.35;;
74214;Laerm;62576;55.694;37.494;2023-04-03T09:38:23;67.03;60.27;79.51;;
74214;Laerm;62576;55.694;37.494;2023-04-03T09:41:04;67.68;61.03;73.39;;
74214;Laerm;62576;55.694;37.494;2023-04-03T09:43:37;67.58;60.49;76.41;;
74214;Laerm;62576;55.694;37.494;2023-04-03T09:46:29;70.55;61.07;88.35;;
74214;Laerm;62576;55.694;37.494;2023-04-03T09:49:01;67.00;60.15;73.62;;
74214;Laerm;62576;55.694;37.494;2023-04-03T09:51:31;65.95;59.54;71.03;;
74214;Laerm;62576;55.694;37.494;2023-04-03T09:54:24;66.34;61.59;72.74;;
74214;Laerm;62576;55.694;37.494;2023-04-03T09:56:55;66.84;61.97;72.76;;
74214;Laerm;62576;55.694;37.494;2023-04-03T09:59:27;67.15;59.87;73.73;;
74214;Laerm;62576;55.694;37.494;2023-04-03T10:01:59;67.42;58.19;73.32;;
74214;Laerm;62576;55.694;37.494;2023-04-03T10:04:45;67.05;60.81;74.30;;
74214;Laerm;62576;55.694;37.494;2023-04-03T10:07:31;67.08;60.65;72.86;;
74214;Laerm;62576;55.694;37.494;2023-04-03T10:10:18;66.63;60.62;71.85;;
74214;Laerm;62576;55.694;37.494;2023-04-03T10:13:04;66.69;60.30;72.02;;
74214;Laerm;62576;55.694;37.494;2023-04-03T10:15:43;66.28;60.08;74.97;;
74214;Laerm;62576;55.694;37.494;2023-04-03T10:18:29;67.55;60.69;76.52;;
74214;Laerm;62576;55.694;37.494;2023-04-03T10:21:05;67.46;61.46;72.37;;
74214;Laerm;62576;55.694;37.494;2023-04-03T10:23:39;66.75;62.17;72.22;;
74214;Laerm;62576;55.694;37.494;2023-04-03T10:26:19;67.17;61.68;71.96;;
74214;Laerm;62576;55.694;37.494;2023-04-03T10:28:58;68.03;62.02;72.51;;
74214;Laerm;62576;55.694;37.494;2023-04-03T10:31:37;66.74;60.86;72.95;;
74214;Laerm;62576;55.694;37.494;2023-04-03T10:34:18;65.99;60.17;71.04;;
74214;Laerm;62576;55.694;37.494;2023-04-03T10:36:57;66.39;60.78;72.94;;
74214;Laerm;62576;55.694;37.494;2023-04-03T10:39:36;66.50;60.21;72.11;;
74214;Laerm;62576;55.694;37.494;2023-04-03T10:42:18;73.27;60.01;92.77;;
74214;Laerm;62576;55.694;37.494;2023-04-03T10:45:07;67.50;59.53;71.97;;
74214;Laerm;62576;55.694;37.494;2023-04-03T10:47:44;66.61;59.52;74.12;;
74214;Laerm;62576;55.694;37.494;2023-04-03T10:50:34;66.81;59.08;70.96;;
74214;Laerm;62576;55.694;37.494;2023-04-03T10:53:27;67.07;59.61;78.47;;
74214;Laerm;62576;55.694;37.494;2023-04-03T10:56:07;67.18;59.51;73.34;;
74214;Laerm;62576;55.694;37.494;2023-04-03T10:58:50;66.74;59.98;72.73;;
74214;Laerm;62576;55.694;37.494;2023-04-03T11:01:33;68.27;59.35;73.18;;
74214;Laerm;62576;55.694;37.494;2023-04-03T11:04:08;67.54;59.10;71.89;;
74214;Laerm;62576;55.694;37.494;2023-04-03T11:06:46;66.99;59.32;72.66;;
74214;Laerm;62576;55.694;37.494;2023-04-03T11:09:23;67.28;59.75;73.08;;
74214;Laerm;62576;55.694;37.494;2023-04-03T11:11:59;67.58;59.05;72.81;;
74214;Laerm;62576;55.694;37.494;2023-04-03T11:14:34;67.47;58.87;72.53;;
74214;Laerm;62576;55.694;37.494;2023-04-03T11:17:13;67.22;59.02;71.61;;
74214;Laerm;62576;55.694;37.494;2023-04-03T11:19:50;66.97;57.97;75.70;;
74214;Laerm;62576;55.694;37.494;2023-04-03T11:22:25;66.46;59.31;71.53;;
74214;Laerm;62576;55.694;37.494;2023-04-03T11:25:04;67.49;60.45;72.73;;
74214;Laerm;62576;55.694;37.494;2023-04-03T11:27:41;67.50;59.75;80.27;;
74214;Laerm;62576;55.694;37.494;2023-04-03T11:30:19;67.45;61.82;73.88;;
74214;Laerm;62576;55.694;37.494;2023-04-03T11:33:11;67.21;59.19;73.97;;
74214;Laerm;62576;55.694;37.494;2023-04-03T11:35:48;67.23;59.77;73.04;;
74214;Laerm;62576;55.694;37.494;2023-04-03T11:38:25;67.45;59.13;72.33;;
74214;Laerm;62576;55.694;37.494;2023-04-03T11:40:58;67.63;61.13;72.59;;
74214;Laerm;62576;55.694;37.494;2023-04-03T11:43:29;67.67;59.94;72.60;;
74214;Laerm;62576;55.694;37.494;2023-04-03T11:46:03;66.78;60.07;72.65;;
74214;Laerm;62576;55.694;37.494;2023-04-03T11:48:48;66.35;59.82;78.88;;
74214;Laerm;62576;55.694;37.494;2023-04-03T11:51:42;67.45;60.89;71.94;;
74214;Laerm;62576;55.694;37.494;2023-04-03T11:54:36;66.38;59.02;71.06;;
74214;Laerm;62576;55.694;37.494;2023-04-03T12:03:33;66.86;59.36;72.43;;
74214;Laerm;62576;55.694;37.494;2023-04-03T12:09:23;67.93;59.07;73.44;;
74214;Laerm;62576;55.694;37.494;2023-04-03T12:11:55;67.20;59.85;72.21;;
74214;Laerm;62576;55.694;37.494;2023-04-03T12:14:27;66.93;59.24;72.86;;
74214;Laerm;62576;55.694;37.494;2023-04-03T12:16:58;67.67;60.31;72.80;;
74214;Laerm;62576;55.694;37.494;2023-04-03T12:19:38;67.60;61.52;71.72;;
74214;Laerm;62576;55.694;37.494;2023-04-03T12:22:19;67.59;60.70;72.81;;
74214;Laerm;62576;55.694;37.494;2023-04-03T12:24:51;68.13;58.73;80.94;;
74214;Laerm;62576;55.694;37.494;2023-04-03T12:27:28;66.18;59.71;70.71;;
74214;Laerm;62576;55.694;37.494;2023-04-03T12:30:07;67.93;61.61;75.52;;
74214;Laerm;62576;55.694;37.494;2023-04-03T12:35:42;68.21;58.59;79.31;;
74214;Laerm;62576;55.694;37.494;2023-04-03T12:38:37;66.34;59.51;82.09;;
74214;Laerm;62576;55.694;37.494;2023-04-03T12:41:27;68.38;58.52;75.89;;
74214;Laerm;62576;55.694;37.494;2023-04-03T12:44:21;68.24;62.05;74.83;;
74214;Laerm;62576;55.694;37.494;2023-04-03T12:47:00;65.78;57.01;70.44;;
74214;Laerm;62576;55.694;37.494;2023-04-03T12:49:35;68.64;56.52;85.63;;
74214;Laerm;62576;55.694;37.494;2023-04-03T12:52:18;73.36;57.59;91.04;;
74214;Laerm;62576;55.694;37.494;2023-04-03T12:54:49;67.40;57.23;72.89;;
74214;Laerm;62576;55.694;37.494;2023-04-03T12:57:21;67.07;58.42;72.95;;
74214;Laerm;62576;55.694;37.494;2023-04-03T13:00:29;66.56;59.88;73.63;;
74214;Laerm;62576;55.694;37.494;2023-04-03T13:03:03;67.08;58.90;75.41;;
74214;Laerm;62576;55.694;37.494;2023-04-03T13:05:34;67.25;59.77;78.94;;
74214;Laerm;62576;55.694;37.494;2023-04-03T13:08:13;69.75;61.05;90.38;;
74214;Laerm;62576;55.694;37.494;2023-04-03T13:10:51;67.75;59.36;77.76;;
74214;Laerm;62576;55.694;37.494;2023-04-03T13:13:22;66.27;58.50;71.81;;
74214;Laerm;62576;55.694;37.494;2023-04-03T13:15:54;67.61;59.13;75.10;;
74214;Laerm;62576;55.694;37.494;2023-04-03T13:18:28;67.60;59.07;77.79;;
74214;Laerm;62576;55.694;37.494;2023-04-03T13:21:04;68.01;61.25;72.63;;
74214;Laerm;62576;55.694;37.494;2023-04-03T13:23:42;68.09;60.31;78.26;;
74214;Laerm;62576;55.694;37.494;2023-04-03T13:26:15;67.30;59.89;72.82;;
74214;Laerm;62576;55.694;37.494;2023-04-03T13:28:46;67.51;62.56;72.65;;
74214;Laerm;62576;55.694;37.494;2023-04-03T13:31:22;67.57;59.75;72.14;;
74214;Laerm;62576;55.694;37.494;2023-04-03T13:33:57;67.80;62.11;73.50;;
74214;Laerm;62576;55.694;37.494;2023-04-03T13:36:31;67.75;62.03;74.23;;
74214;Laerm;62576;55.694;37.494;2023-04-03T13:39:06;66.94;61.27;71.82;;
74214;Laerm;62576;55.694;37.494;2023-04-03T13:41:49;66.49;59.05;73.47;;
74214;Laerm;62576;55.694;37.494;2023-04-03T13:44:35;67.10;58.93;72.03;;
74214;Laerm;62576;55.694;37.494;2023-04-03T13:47:23;66.56;59.78;71.50;;
74214;Laerm;62576;55.694;37.494;2023-04-03T13:50:03;66.35;58.96;70.63;;
74214;Laerm;62576;55.694;37.494;2023-04-03T13:52:34;67.87;59.62;73.19;;
74214;Laerm;62576;55.694;37.494;2023-04-03T13:55:20;67.03;60.14;77.98;;
74214;Laerm;62576;55.694;37.494;2023-04-03T13:57:57;66.80;59.86;71.54;;
74214;Laerm;62576;55.694;37.494;2023-04-03T14:00:36;68.16;59.59;73.06;;
74214;Laerm;62576;55.694;37.494;2023-04-03T14:03:20;67.57;58.56;73.95;;
74214;Laerm;62576;55.694;37.494;2023-04-03T14:05:57;67.45;61.36;72.73;;
74214;Laerm;62576;55.694;37.494;2023-04-03T14:08:30;65.99;59.44;71.77;;
74214;Laerm;62576;55.694;37.494;2023-04-03T14:11:03;67.67;59.93;80.35;;
74214;Laerm;62576;55.694;37.494;2023-04-03T14:13:33;66.66;59.77;72.64;;
74214;Laerm;62576;55.694;37.494;2023-04-03T14:16:04;66.07;57.49;70.40;;
74214;Laerm;62576;55.694;37.494;2023-04-03T14:18:36;66.19;60.50;71.87;;
74214;Laerm;62576;55.694;37.494;2023-04-03T14:21:08;67.35;59.51;74.00;;
74214;Laerm;62576;55.694;37.494;2023-04-03T14:23:39;67.17;58.79;72.43;;